TimeCDT,TemperatureF,Dew PointF,Humidity,Sea Level PressureIn,VisibilityMPH,Wind Direction,Wind SpeedMPH,Gust SpeedMPH,PrecipitationIn,Events,Conditions,WindDirDegrees,DateUTC
12:15 AM,32.0,32.0,100,30.16,7.0,Calm,Calm,-,N/A,,Clear,0,2011-11-01 05:15:00
12:35 AM,32.0,32.0,100,30.17,7.0,South,3.5,-,N/A,,Clear,170,2011-11-01 05:35:00
12:55 AM,32.0,32.0,100,30.17,10.0,Calm,Calm,-,N/A,,Clear,0,2011-11-01 05:55:00
1:15 AM,32.0,30.2,93,30.16,7.0,Calm,Calm,-,N/A,,Clear,0,2011-11-01 06:15:00
1:35 AM,32.0,30.2,93,30.16,7.0,East,3.5,-,N/A,,Clear,100,2011-11-01 06:35:00
1:55 AM,32.0,32.0,100,30.16,10.0,SE,3.5,-,N/A,,Clear,130,2011-11-01 06:55:00
2:15 AM,32.0,32.0,100,30.17,10.0,SE,4.6,-,N/A,,Clear,140,2011-11-01 07:15:00
2:35 AM,32.0,30.2,93,30.17,10.0,Calm,Calm,-,N/A,,Clear,0,2011-11-01 07:35:00
2:55 AM,32.0,30.2,93,30.17,10.0,ESE,4.6,-,N/A,,Clear,110,2011-11-01 07:55:00
3:15 AM,32.0,32.0,100,30.17,10.0,SE,3.5,-,N/A,,Clear,140,2011-11-01 08:15:00
3:35 AM,32.0,30.2,93,30.16,10.0,ESE,4.6,-,N/A,,Clear,110,2011-11-01 08:35:00
3:55 AM,32.0,32.0,100,30.17,10.0,ESE,4.6,-,N/A,,Clear,120,2011-11-01 08:55:00
4:15 AM,32.0,30.2,93,30.17,10.0,ESE,3.5,-,N/A,,Clear,120,2011-11-01 09:15:00
4:35 AM,32.0,32.0,100,30.17,10.0,SE,3.5,-,N/A,,Clear,140,2011-11-01 09:35:00
4:55 AM,32.0,32.0,100,30.18,10.0,SE,3.5,-,N/A,,Clear,130,2011-11-01 09:55:00
5:15 AM,32.0,30.2,93,30.18,10.0,ESE,3.5,-,N/A,,Clear,120,2011-11-01 10:15:00
5:35 AM,30.2,28.4,93,30.18,10.0,ESE,4.6,-,N/A,,Clear,110,2011-11-01 10:35:00
5:55 AM,32.0,30.2,93,30.18,10.0,ESE,3.5,-,N/A,,Clear,120,2011-11-01 10:55:00
6:15 AM,32.0,30.2,93,30.17,10.0,ESE,4.6,-,N/A,,Clear,120,2011-11-01 11:15:00
6:35 AM,32.0,30.2,93,30.17,10.0,ESE,5.8,-,N/A,,Clear,120,2011-11-01 11:35:00
6:55 AM,32.0,30.2,93,30.17,10.0,ESE,3.5,-,N/A,,Clear,110,2011-11-01 11:55:00
7:15 AM,32.0,30.2,93,30.17,10.0,SE,3.5,-,N/A,,Clear,130,2011-11-01 12:15:00
7:35 AM,33.8,32.0,93,30.17,10.0,SE,5.8,-,N/A,,Clear,140,2011-11-01 12:35:00
7:55 AM,35.6,32.0,87,30.18,10.0,ESE,4.6,-,N/A,,Scattered Clouds,120,2011-11-01 12:55:00
8:15 AM,35.6,32.0,87,30.17,10.0,SE,5.8,-,N/A,,Clear,130,2011-11-01 13:15:00
8:35 AM,39.2,33.8,81,30.17,10.0,SE,9.2,-,N/A,,Scattered Clouds,140,2011-11-01 13:35:00
8:55 AM,42.8,35.6,76,30.17,10.0,SE,8.1,-,N/A,,Clear,140,2011-11-01 13:55:00
9:15 AM,44.6,35.6,71,30.18,10.0,SSE,9.2,16.1,N/A,,Clear,160,2011-11-01 14:15:00
9:35 AM,46.4,35.6,66,30.17,10.0,SSE,11.5,-,N/A,,Clear,150,2011-11-01 14:35:00
9:55 AM,48.2,35.6,62,30.16,10.0,SE,9.2,-,N/A,,Clear,140,2011-11-01 14:55:00
10:15 AM,51.8,35.6,54,30.16,10.0,South,17.3,23.0,N/A,,Clear,170,2011-11-01 15:15:00
10:35 AM,51.8,35.6,54,30.16,10.0,South,11.5,19.6,N/A,,Clear,170,2011-11-01 15:35:00
10:55 AM,53.6,35.6,51,30.16,10.0,SSE,12.7,18.4,N/A,,Clear,160,2011-11-01 15:55:00
11:15 AM,53.6,37.4,54,30.16,10.0,South,12.7,-,N/A,,Clear,180,2011-11-01 16:15:00
11:35 AM,55.4,37.4,51,30.15,10.0,South,9.2,-,N/A,,Clear,170,2011-11-01 16:35:00
11:55 AM,59.0,39.2,48,30.14,10.0,South,9.2,-,N/A,,Clear,170,2011-11-01 16:55:00
12:15 PM,59.0,39.2,48,30.13,10.0,South,9.2,16.1,N/A,,Clear,180,2011-11-01 17:15:00
12:35 PM,60.8,41.0,48,30.13,10.0,South,9.2,-,N/A,,Clear,180,2011-11-01 17:35:00
12:55 PM,60.8,41.0,48,30.12,10.0,South,13.8,-,N/A,,Clear,180,2011-11-01 17:55:00
1:15 PM,62.6,41.0,45,30.11,10.0,SSW,11.5,-,N/A,,Clear,200,2011-11-01 18:15:00
1:35 PM,62.6,41.0,45,30.10,10.0,South,8.1,-,N/A,,Clear,180,2011-11-01 18:35:00
1:55 PM,64.4,42.8,45,30.09,10.0,South,10.4,-,N/A,,Clear,190,2011-11-01 18:55:00
2:15 PM,64.4,42.8,45,30.09,10.0,South,12.7,17.3,N/A,,Clear,170,2011-11-01 19:15:00
2:35 PM,64.4,42.8,45,30.08,10.0,South,12.7,-,N/A,,Clear,170,2011-11-01 19:35:00
2:55 PM,66.2,42.8,43,30.08,10.0,South,13.8,18.4,N/A,,Clear,180,2011-11-01 19:55:00
3:15 PM,66.2,42.8,43,30.07,10.0,South,13.8,21.9,N/A,,Clear,180,2011-11-01 20:15:00
3:35 PM,68.0,42.8,40,30.07,10.0,South,16.1,-,N/A,,Clear,170,2011-11-01 20:35:00
3:55 PM,68.0,42.8,40,30.07,10.0,South,13.8,19.6,N/A,,Clear,180,2011-11-01 20:55:00
4:15 PM,66.2,41.0,40,30.07,10.0,South,13.8,-,N/A,,Clear,180,2011-11-01 21:15:00
4:35 PM,66.2,42.8,43,30.07,10.0,South,12.7,-,N/A,,Clear,170,2011-11-01 21:35:00
4:55 PM,64.4,42.8,45,30.07,10.0,South,9.2,16.1,N/A,,Clear,170,2011-11-01 21:55:00
5:15 PM,64.4,42.8,45,30.06,10.0,South,9.2,-,N/A,,Clear,170,2011-11-01 22:15:00
5:35 PM,62.6,42.8,48,30.06,10.0,South,9.2,-,N/A,,Clear,170,2011-11-01 22:35:00
5:55 PM,62.6,42.8,48,30.07,10.0,South,9.2,-,N/A,,Clear,170,2011-11-01 22:55:00
6:15 PM,60.8,41.0,48,30.07,10.0,SSE,9.2,-,N/A,,Clear,160,2011-11-01 23:15:00
6:35 PM,60.8,41.0,48,30.07,10.0,South,11.5,-,N/A,,Clear,170,2011-11-01 23:35:00
6:55 PM,60.8,41.0,48,30.08,10.0,South,10.4,-,N/A,,Clear,170,2011-11-01 23:55:00
7:15 PM,59.0,41.0,51,30.08,10.0,SSE,10.4,17.3,N/A,,Clear,160,2011-11-02 00:15:00
7:35 PM,59.0,41.0,51,30.09,10.0,South,10.4,-,N/A,,Clear,170,2011-11-02 00:35:00
7:55 PM,57.2,39.2,51,30.09,10.0,South,10.4,-,N/A,,Clear,170,2011-11-02 00:55:00
8:15 PM,55.4,39.2,54,30.09,10.0,South,11.5,-,N/A,,Clear,170,2011-11-02 01:15:00
8:35 PM,55.4,39.2,54,30.09,10.0,SSE,12.7,17.3,N/A,,Clear,160,2011-11-02 01:35:00
8:55 PM,55.4,37.4,51,30.09,10.0,South,15.0,20.7,N/A,,Clear,170,2011-11-02 01:55:00
9:15 PM,55.4,37.4,51,30.09,10.0,South,13.8,-,N/A,,Clear,170,2011-11-02 02:15:00
9:35 PM,55.4,37.4,51,30.09,10.0,South,12.7,17.3,N/A,,Clear,170,2011-11-02 02:35:00
9:55 PM,53.6,37.4,54,30.09,10.0,South,11.5,-,N/A,,Clear,170,2011-11-02 02:55:00
10:15 PM,53.6,37.4,54,30.10,10.0,South,12.7,19.6,N/A,,Clear,170,2011-11-02 03:15:00
10:35 PM,53.6,37.4,54,30.10,10.0,South,10.4,16.1,N/A,,Clear,170,2011-11-02 03:35:00
10:55 PM,53.6,37.4,54,30.10,10.0,South,11.5,-,N/A,,Clear,170,2011-11-02 03:55:00
11:15 PM,53.6,35.6,51,30.10,10.0,South,13.8,19.6,N/A,,Clear,170,2011-11-02 04:15:00
11:35 PM,51.8,35.6,54,30.10,10.0,South,12.7,18.4,N/A,,Clear,170,2011-11-02 04:35:00
11:55 PM,51.8,35.6,54,30.10,10.0,South,10.4,-,N/A,,Clear,170,2011-11-02 04:55:00